Time;durP1;ratioP1;P1;durP2;ratioP2;P2;SDS_P1;SDS_P2;PMS_P1;PMS_P2;Temp;Humidity;BMP_temperature;BMP_pressure;BME280_temperature;BME280_humidity;BME280_pressure;Samples;Min_cycle;Max_cycle;Signal;HPM_P1;HPM_P2
2022/01/10 00:06:53;;;;;;;;;;;4.80;99.90;;;;;;5192261;27;19925;-81
2022/01/10 00:09:20;;;;;;;;;;;4.80;99.90;;;;;;5154513;27;19923;-80
2022/01/10 00:11:47;;;;;;;;;;;4.80;99.90;;;;;;5141799;27;20037;-80
2022/01/10 00:14:13;;;;;;;;;;;4.80;99.90;;;;;;5049638;28;19932;-83
2022/01/10 00:16:40;;;;;;;;;;;4.80;99.90;;;;;;4997260;28;19927;-80
2022/01/10 00:19:06;;;;;;;;;;;4.80;99.90;;;;;;4855727;29;19937;-82
2022/01/10 00:21:33;;;;;;;;;;;4.80;99.90;;;;;;4592724;30;19935;-79
2022/01/10 00:29:05;;;;;;;;;;;4.80;99.90;;;;;;5174472;27;19941;-84
2022/01/10 00:31:32;;;;;;;;;;;4.90;99.90;;;;;;5134019;27;19923;-82
2022/01/10 00:33:59;;;;;;;;;;;4.90;99.90;;;;;;5115820;27;19931;-81
2022/01/10 00:36:26;;;;;;;;;;;4.90;99.90;;;;;;5091441;28;19925;-83
2022/01/10 00:38:52;;;;;;;;;;;4.90;99.90;;;;;;4952013;28;19934;-81
2022/01/10 00:41:19;;;;;;;;;;;4.90;99.90;;;;;;4888415;29;19928;-82
2022/01/10 00:43:47;;;;;;;;;;;5.00;99.90;;;;;;4740969;29;19932;-83
2022/01/10 00:51:18;;;;;;;;;;;4.90;99.90;;;;;;5174031;27;19927;-84
2022/01/10 00:53:48;;;;;;;;;;;4.90;99.90;;;;;;5117251;27;19923;-82
2022/01/10 00:56:14;;;;;;;;;;;4.90;99.90;;;;;;5114428;28;19923;-84
2022/01/10 00:58:41;;;;;;;;;;;4.80;99.90;;;;;;5072103;28;19924;-82
2022/01/10 01:01:07;;;;;;;;;;;4.90;99.90;;;;;;5016315;28;19938;-81
2022/01/10 01:03:34;;;;;;;;;;;4.80;99.90;;;;;;4840951;29;19930;-85
2022/01/10 01:06:01;;;;;;;;;;;4.80;99.90;;;;;;4606205;30;19939;-85
2022/01/10 01:13:36;;;;;;;;;;;4.90;99.90;;;;;;5155561;27;19927;-80
2022/01/10 01:16:14;;;;;;;;;;;4.80;99.90;;;;;;5092673;28;19931;-81
2022/01/10 01:24:11;;;;;;;;;;;4.80;99.90;;;;;;4951666;28;19935;-84
2022/01/10 01:26:38;;;;;;;;;;;4.80;99.90;;;;;;4817071;29;19929;-81
2022/01/10 01:29:07;;;;;;;;;;;4.80;99.90;;;;;;4587973;30;19965;-82
2022/01/10 01:36:40;;;;;;;;;;;4.80;99.90;;;;;;5175739;27;19930;-83
2022/01/10 01:39:17;;;;;;;;;;;4.90;99.90;;;;;;5122557;27;19924;-84
2022/01/10 01:41:44;;;;;;;;;;;4.90;99.90;;;;;;5091414;28;19924;-83
2022/01/10 01:44:10;;;;;;;;;;;4.90;99.90;;;;;;5093319;28;19924;-81
2022/01/10 01:46:38;;;;;;;;;;;5.00;99.90;;;;;;5059218;28;19933;-82
2022/01/10 01:49:05;;;;;;;;;;;4.90;99.90;;;;;;4935743;28;19927;-80
2022/01/10 01:51:32;;;;;;;;;;;4.90;99.90;;;;;;4811031;29;19931;-83
2022/01/10 01:59:06;;;;;;;;;;;4.90;99.90;;;;;;5182180;27;19925;-79
2022/01/10 02:01:33;;;;;;;;;;;4.90;99.90;;;;;;5146028;27;19923;-80
2022/01/10 02:04:00;;;;;;;;;;;4.80;99.90;;;;;;5126011;27;19932;-80
2022/01/10 02:06:29;;;;;;;;;;;4.80;99.90;;;;;;5089185;28;19940;-83
2022/01/10 02:08:56;;;;;;;;;;;4.80;99.90;;;;;;4980260;28;19928;-81
2022/01/10 02:11:23;;;;;;;;;;;4.80;99.90;;;;;;4845796;29;19929;-82
2022/01/10 02:13:50;;;;;;;;;;;4.70;99.90;;;;;;4660755;30;19934;-81
2022/01/10 02:21:45;;;;;;;;;;;4.80;99.90;;;;;;5187038;27;19925;-78
2022/01/10 02:24:12;;;;;;;;;;;4.80;99.90;;;;;;5127415;27;19931;-80
2022/01/10 02:26:39;;;;;;;;;;;4.80;99.90;;;;;;5127968;27;19924;-79
2022/01/10 02:29:07;;;;;;;;;;;4.80;99.90;;;;;;5126720;27;19938;-79
2022/01/10 02:31:34;;;;;;;;;;;4.80;99.90;;;;;;5074792;28;19929;-81
2022/01/10 02:34:01;;;;;;;;;;;4.90;99.90;;;;;;4926302;28;19927;-81
2022/01/10 02:36:27;;;;;;;;;;;4.80;99.90;;;;;;4711294;29;19933;-82
2022/01/10 02:44:00;;;;;;;;;;;4.80;99.90;;;;;;5174135;27;19925;-83
2022/01/10 02:46:31;;;;;;;;;;;4.80;99.90;;;;;;5114490;27;19923;-80
2022/01/10 02:48:58;;;;;;;;;;;4.80;99.90;;;;;;5089638;28;19931;-82
2022/01/10 02:51:25;;;;;;;;;;;4.80;99.90;;;;;;5057687;28;19932;-80
2022/01/10 02:53:52;;;;;;;;;;;4.80;99.90;;;;;;4981499;28;19942;-82
2022/01/10 02:56:19;;;;;;;;;;;4.80;99.90;;;;;;4863545;29;19929;-81
2022/01/10 02:58:45;;;;;;;;;;;4.70;99.90;;;;;;4554190;30;19943;-82
2022/01/10 03:05:57;;;;;;;;;;;4.80;99.90;;;;;;5173277;27;19926;-81
2022/01/10 03:08:24;;;;;;;;;;;4.80;99.90;;;;;;5137780;27;19930;-81
2022/01/10 03:10:51;;;;;;;;;;;4.80;99.90;;;;;;5118292;27;19938;-81
2022/01/10 03:13:18;;;;;;;;;;;4.80;99.90;;;;;;5097408;28;19930;-85
2022/01/10 03:15:44;;;;;;;;;;;4.80;99.90;;;;;;5051746;28;19933;-82
2022/01/10 03:18:11;;;;;;;;;;;4.80;99.90;;;;;;4909481;29;19929;-84
2022/01/10 03:20:38;;;;;;;;;;;4.80;99.90;;;;;;4699580;29;19932;-80
2022/01/10 03:28:13;;;;;;;;;;;4.80;99.90;;;;;;5173766;27;19926;-82
2022/01/10 03:30:41;;;;;;;;;;;4.80;99.90;;;;;;5115084;27;19924;-81
2022/01/10 03:33:08;;;;;;;;;;;4.80;99.90;;;;;;5091746;28;19924;-83
2022/01/10 03:35:37;;;;;;;;;;;4.90;99.90;;;;;;5047381;28;19936;-83
2022/01/10 03:38:06;;;;;;;;;;;4.90;99.90;;;;;;5027232;28;19927;-82
2022/01/10 03:40:35;;;;;;;;;;;4.90;99.90;;;;;;4897468;29;19930;-83
2022/01/10 03:43:06;;;;;;;;;;;4.90;99.90;;;;;;4664862;29;19934;-82
2022/01/10 03:50:37;;;;;;;;;;;4.80;99.90;;;;;;5173251;27;19925;-85
2022/01/10 03:53:04;;;;;;;;;;;4.90;99.90;;;;;;5133479;27;19930;-84
2022/01/10 03:55:31;;;;;;;;;;;4.80;99.90;;;;;;5115573;27;19942;-82
2022/01/10 03:58:00;;;;;;;;;;;4.80;99.90;;;;;;5108349;28;19924;-85
2022/01/10 04:00:27;;;;;;;;;;;4.80;99.90;;;;;;4999280;28;19938;-83
2022/01/10 04:02:58;;;;;;;;;;;4.80;99.90;;;;;;4863224;29;19936;-84
2022/01/10 04:05:29;;;;;;;;;;;4.80;99.90;;;;;;4620616;30;19934;-82
2022/01/10 04:12:49;;;;;;;;;;;4.80;99.90;;;;;;5163636;27;19927;-85
2022/01/10 04:15:16;;;;;;;;;;;4.80;99.90;;;;;;5116549;27;19923;-81
2022/01/10 04:17:43;;;;;;;;;;;4.80;99.90;;;;;;5109331;28;19932;-81
2022/01/10 04:20:10;;;;;;;;;;;4.80;99.90;;;;;;5042114;28;19925;-83
2022/01/10 04:22:37;;;;;;;;;;;4.80;99.90;;;;;;4974372;28;19934;-84
2022/01/10 04:25:04;;;;;;;;;;;4.80;99.90;;;;;;4804007;29;19931;-82
2022/01/10 04:27:32;;;;;;;;;;;4.80;99.90;;;;;;4568648;30;19944;-80
2022/01/10 04:35:05;;;;;;;;;;;4.80;99.90;;;;;;5183884;27;19925;-81
2022/01/10 04:37:33;;;;;;;;;;;4.80;99.90;;;;;;5136945;27;19924;-80
2022/01/10 04:40:00;;;;;;;;;;;4.80;99.90;;;;;;5129671;27;19923;-82
2022/01/10 04:42:26;;;;;;;;;;;4.70;99.90;;;;;;5105921;28;19936;-83
2022/01/10 04:44:53;;;;;;;;;;;4.70;99.90;;;;;;5042751;28;19926;-80
2022/01/10 04:47:22;;;;;;;;;;;4.80;99.90;;;;;;4905375;29;19928;-80
2022/01/10 04:57:03;;;;;;;;;;;4.80;99.90;;;;;;5176161;27;19926;-87
2022/01/10 04:59:30;;;;;;;;;;;4.80;99.90;;;;;;5131712;27;19931;-84
2022/01/10 05:01:56;;;;;;;;;;;4.80;99.90;;;;;;5123693;28;20035;-79
2022/01/10 05:04:23;;;;;;;;;;;4.80;99.90;;;;;;5103691;28;19932;-83
2022/01/10 05:06:50;;;;;;;;;;;4.70;99.90;;;;;;5046658;28;19926;-84
2022/01/10 05:09:16;;;;;;;;;;;4.70;99.90;;;;;;4761076;29;19941;-81
2022/01/10 05:11:49;;;;;;;;;;;4.80;99.90;;;;;;4461976;31;19938;-83
2022/01/10 05:19:15;;;;;;;;;;;4.80;99.90;;;;;;5175138;27;19942;-82
2022/01/10 05:21:42;;;;;;;;;;;4.70;99.90;;;;;;5136346;27;19945;-82
2022/01/10 05:24:08;;;;;;;;;;;4.70;99.90;;;;;;5116175;27;19932;-81
2022/01/10 05:26:36;;;;;;;;;;;4.70;99.90;;;;;;5096236;28;19936;-84
2022/01/10 05:29:03;;;;;;;;;;;4.80;99.90;;;;;;4928189;28;19932;-81
2022/01/10 05:31:33;;;;;;;;;;;4.80;99.90;;;;;;4784815;29;19938;-84
2022/01/10 05:34:16;;;;;;;;;;;4.80;99.90;;;;;;4518157;30;19937;-85
2022/01/10 05:41:49;;;;;;;;;;;4.80;99.90;;;;;;5155256;27;19930;-83
2022/01/10 05:44:16;;;;;;;;;;;4.80;99.90;;;;;;5116809;28;19927;-82
2022/01/10 05:46:43;;;;;;;;;;;4.80;99.90;;;;;;5060090;27;19957;-81
2022/01/10 05:49:12;;;;;;;;;;;4.90;99.90;;;;;;5088779;28;19962;-81
2022/01/10 05:51:39;;;;;;;;;;;4.80;99.90;;;;;;4989849;28;19959;-81
2022/01/10 05:54:26;;;;;;;;;;;4.80;99.90;;;;;;4784397;29;19977;-83
2022/01/10 05:56:53;;;;;;;;;;;4.80;99.90;;;;;;4519996;30;19965;-82
2022/01/10 06:04:30;;;;;;;;;;;4.80;99.90;;;;;;5174380;27;19949;-82
2022/01/10 06:07:00;;;;;;;;;;;4.80;99.90;;;;;;5140310;27;19924;-80
2022/01/10 06:09:26;;;;;;;;;;;4.80;99.90;;;;;;5110009;28;19962;-80
2022/01/10 06:11:55;;;;;;;;;;;4.80;99.90;;;;;;5027913;28;19926;-81
2022/01/10 06:14:21;;;;;;;;;;;4.80;99.90;;;;;;4917075;29;19928;-81
2022/01/10 06:16:48;;;;;;;;;;;4.80;99.90;;;;;;4797954;29;19961;-84
2022/01/10 06:19:15;;;;;;;;;;;4.80;99.90;;;;;;4608745;30;19972;-85
2022/01/10 06:26:49;;;;;;;;;;;4.90;99.90;;;;;;5173813;27;19950;-80
2022/01/10 06:29:17;;;;;;;;;;;4.80;99.90;;;;;;5116369;27;19942;-82
2022/01/10 06:31:44;;;;;;;;;;;4.90;99.90;;;;;;5116778;27;19958;-83
2022/01/10 06:34:14;;;;;;;;;;;4.90;99.90;;;;;;5058335;28;19950;-83
2022/01/10 06:36:42;;;;;;;;;;;4.80;99.90;;;;;;4995226;28;19934;-79
2022/01/10 06:39:09;;;;;;;;;;;4.80;99.90;;;;;;4795236;29;19930;-79
2022/01/10 06:41:39;;;;;;;;;;;4.80;99.90;;;;;;4607968;30;19940;-79
2022/01/10 06:48:47;;;;;;;;;;;4.90;99.90;;;;;;5170985;27;19926;-81
2022/01/10 06:51:14;;;;;;;;;;;5.00;99.90;;;;;;5115647;27;19961;-81
2022/01/10 06:53:44;;;;;;;;;;;5.00;99.90;;;;;;5111158;28;19958;-83
2022/01/10 06:56:11;;;;;;;;;;;4.90;99.90;;;;;;5055536;28;19974;-79
2022/01/10 06:58:39;;;;;;;;;;;4.80;99.90;;;;;;4990067;28;19927;-78
2022/01/10 07:01:09;;;;;;;;;;;4.90;99.90;;;;;;4877381;29;19934;-79
2022/01/10 07:03:36;;;;;;;;;;;4.90;99.90;;;;;;4612897;30;19934;-79
2022/01/10 07:08:51;;;;;;;;;;;4.90;99.90;;;;;;5194760;27;19951;-79
2022/01/10 07:11:23;;;;;;;;;;;4.80;99.90;;;;;;5135413;27;19912;-82
2022/01/10 07:13:50;;;;;;;;;;;4.80;99.90;;;;;;5089781;28;19942;-82
2022/01/10 07:16:16;;;;;;;;;;;4.90;99.90;;;;;;5049121;28;19933;-84
2022/01/10 07:18:48;;;;;;;;;;;4.90;99.90;;;;;;4910743;28;19940;-81
2022/01/10 07:21:24;;;;;;;;;;;4.90;99.90;;;;;;4659226;30;19934;-83
2022/01/10 07:23:52;;;;;;;;;;;4.90;99.90;;;;;;4379361;31;19947;-83
2022/01/10 07:31:24;;;;;;;;;;;5.00;99.90;;;;;;5174127;27;19930;-83
2022/01/10 07:33:50;;;;;;;;;;;5.00;99.90;;;;;;5133668;27;19946;-84
2022/01/10 07:36:17;;;;;;;;;;;4.90;99.90;;;;;;5127154;27;19942;-81
2022/01/10 07:38:44;;;;;;;;;;;5.00;99.90;;;;;;5089660;28;19932;-83
2022/01/10 07:41:10;;;;;;;;;;;5.00;99.90;;;;;;5035189;28;19934;-81
2022/01/10 07:43:37;;;;;;;;;;;5.00;99.90;;;;;;4867476;28;19931;-84
2022/01/10 07:46:04;;;;;;;;;;;5.10;99.90;;;;;;4595772;30;19942;-83
2022/01/10 07:53:36;;;;;;;;;;;5.10;99.90;;;;;;5155917;27;19926;-82
2022/01/10 07:56:03;;;;;;;;;;;5.10;99.90;;;;;;5117598;27;19923;-82
2022/01/10 07:58:30;;;;;;;;;;;5.20;99.90;;;;;;5094842;28;19931;-83
2022/01/10 08:00:56;;;;;;;;;;;5.20;99.90;;;;;;5091013;28;19924;-82
2022/01/10 08:03:26;;;;;;;;;;;5.20;99.90;;;;;;4979210;28;19926;-81
2022/01/10 08:05:53;;;;;;;;;;;5.20;99.90;;;;;;4827196;29;19931;-79
2022/01/10 08:08:20;;;;;;;;;;;5.10;99.90;;;;;;4543115;30;19937;-84
2022/01/10 08:14:18;;;;;;;;;;;5.10;99.90;;;;;;5174795;27;19926;-82
2022/01/10 08:16:48;;;;;;;;;;;5.00;99.90;;;;;;5112379;27;19931;-81
2022/01/10 08:19:14;;;;;;;;;;;5.10;99.90;;;;;;5105433;28;19924;-84
2022/01/10 08:21:41;;;;;;;;;;;5.10;99.90;;;;;;5065752;28;19951;-83
2022/01/10 08:24:07;;;;;;;;;;;5.10;99.90;;;;;;4991331;28;19931;-84
2022/01/10 08:26:34;;;;;;;;;;;5.10;99.90;;;;;;4874802;28;19929;-80
2022/01/10 08:29:01;;;;;;;;;;;5.10;99.90;;;;;;4662111;30;19934;-84
2022/01/10 08:36:33;;;;;;;;;;;5.10;99.90;;;;;;5182633;27;19925;-81
2022/01/10 08:39:00;;;;;;;;;;;5.20;99.90;;;;;;5120823;27;19924;-80
2022/01/10 08:41:27;;;;;;;;;;;5.20;99.90;;;;;;5085389;28;19939;-80
2022/01/10 08:43:53;;;;;;;;;;;5.20;99.90;;;;;;5023600;28;19925;-83
2022/01/10 08:46:20;;;;;;;;;;;5.20;99.90;;;;;;4956075;28;19935;-81
2022/01/10 08:48:47;;;;;;;;;;;5.20;99.90;;;;;;4763701;29;19932;-81
2022/01/10 08:51:14;;;;;;;;;;;5.20;99.90;;;;;;4532090;30;19937;-80
2022/01/10 08:58:51;;;;;;;;;;;5.30;99.90;;;;;;5176111;27;19926;-81
2022/01/10 09:01:19;;;;;;;;;;;5.20;99.90;;;;;;5117106;27;19923;-80
2022/01/10 09:03:46;;;;;;;;;;;5.20;99.90;;;;;;5087571;28;19925;-81
2022/01/10 09:06:13;;;;;;;;;;;5.20;99.90;;;;;;5054516;28;19926;-80
2022/01/10 09:08:41;;;;;;;;;;;5.20;99.90;;;;;;4956213;28;19927;-83
2022/01/10 09:11:08;;;;;;;;;;;5.20;99.90;;;;;;4740760;29;19933;-83
2022/01/10 09:13:36;;;;;;;;;;;5.20;99.90;;;;;;4364590;31;19966;-79
2022/01/10 09:20:30;;;;;;;;;;;5.10;99.90;;;;;;5188898;27;19925;-82
2022/01/10 09:22:57;;;;;;;;;;;5.30;99.90;;;;;;5136539;27;19924;-79
2022/01/10 09:25:24;;;;;;;;;;;5.20;99.90;;;;;;5130192;27;19930;-79
2022/01/10 09:27:50;;;;;;;;;;;5.20;99.90;;;;;;5092180;28;19925;-79
2022/01/10 09:30:17;;;;;;;;;;;5.20;99.90;;;;;;4992674;28;19928;-79
2022/01/10 09:32:44;;;;;;;;;;;5.30;99.90;;;;;;4748537;29;19939;-80
2022/01/10 09:35:10;;;;;;;;;;;5.30;99.90;;;;;;4562529;30;19934;-80
2022/01/10 09:42:43;;;;;;;;;;;5.40;99.90;;;;;;5164362;27;19929;-79
2022/01/10 09:45:09;;;;;;;;;;;5.40;99.90;;;;;;5126300;27;19924;-82
2022/01/10 09:47:36;;;;;;;;;;;5.40;99.90;;;;;;5100182;27;19938;-81
2022/01/10 09:50:03;;;;;;;;;;;5.50;99.90;;;;;;5092348;28;19925;-81
2022/01/10 09:52:30;;;;;;;;;;;5.50;99.90;;;;;;5006836;28;19949;-83
2022/01/10 09:54:57;;;;;;;;;;;5.50;99.90;;;;;;4791668;29;19942;-79
2022/01/10 09:57:23;;;;;;;;;;;5.50;99.90;;;;;;4631637;30;19959;-80
2022/01/10 10:04:54;;;;;;;;;;;5.60;99.90;;;;;;5175438;27;19926;-81
2022/01/10 10:07:22;;;;;;;;;;;5.50;99.90;;;;;;5120281;27;19924;-83
2022/01/10 10:09:49;;;;;;;;;;;5.60;99.90;;;;;;5122542;27;19924;-83
2022/01/10 10:12:16;;;;;;;;;;;5.60;99.90;;;;;;5121273;28;19923;-81
2022/01/10 10:14:44;;;;;;;;;;;5.50;99.90;;;;;;5004175;28;19927;-81
2022/01/10 10:17:17;;;;;;;;;;;5.50;99.90;;;;;;4763041;29;19939;-82
2022/01/10 10:19:44;;;;;;;;;;;5.50;99.90;;;;;;4468472;31;19938;-81
2022/01/10 10:26:24;;;;;;;;;;;5.60;99.90;;;;;;5183345;27;19925;-82
2022/01/10 10:28:51;;;;;;;;;;;5.50;99.90;;;;;;5106065;27;19928;-81
2022/01/10 10:31:23;;;;;;;;;;;5.50;99.90;;;;;;5118936;27;19930;-81
2022/01/10 10:33:50;;;;;;;;;;;5.40;99.90;;;;;;5086623;28;19929;-84
2022/01/10 10:36:17;;;;;;;;;;;5.50;99.90;;;;;;5013067;28;19927;-80
2022/01/10 10:38:44;;;;;;;;;;;5.50;99.90;;;;;;4878798;28;19930;-81
2022/01/10 10:41:11;;;;;;;;;;;5.60;99.90;;;;;;4579255;30;19938;-82
2022/01/10 10:46:19;;;;;;;;;;;5.50;99.90;;;;;;5175671;27;19929;-82
2022/01/10 10:48:48;;;;;;;;;;;5.50;99.90;;;;;;5143224;27;19922;-81
2022/01/10 10:51:15;;;;;;;;;;;5.50;99.90;;;;;;5136816;27;19930;-78
2022/01/10 10:53:42;;;;;;;;;;;5.60;99.90;;;;;;5073768;28;19929;-83
2022/01/10 10:56:08;;;;;;;;;;;5.60;99.90;;;;;;4976845;28;19931;-83
2022/01/10 10:58:35;;;;;;;;;;;5.60;99.90;;;;;;4806325;29;19933;-79
2022/01/10 11:01:04;;;;;;;;;;;5.60;99.90;;;;;;4602050;30;19934;-80
2022/01/10 11:08:36;;;;;;;;;;;6.00;99.90;;;;;;5175633;27;19925;-81
2022/01/10 11:11:03;;;;;;;;;;;6.00;99.90;;;;;;5119488;27;19923;-82
2022/01/10 11:13:34;;;;;;;;;;;6.00;99.90;;;;;;5098661;28;19923;-81
2022/01/10 11:16:00;;;;;;;;;;;6.00;99.90;;;;;;5069589;28;19933;-83
2022/01/10 11:18:27;;;;;;;;;;;6.00;99.90;;;;;;5001122;28;19937;-81
2022/01/10 11:20:55;;;;;;;;;;;6.00;99.90;;;;;;4836520;29;19937;-81
2022/01/10 11:23:23;;;;;;;;;;;6.00;99.90;;;;;;4589259;30;19935;-82
2022/01/10 11:25:50;;;;;;;;;;;6.00;99.90;;;;;;4369049;31;19970;-79
2022/01/10 11:33:22;;;;;;;;;;;6.20;99.90;;;;;;5160328;27;19942;-83
2022/01/10 11:35:50;;;;;;;;;;;6.20;99.90;;;;;;5080309;28;19935;-81
2022/01/10 11:38:19;;;;;;;;;;;6.20;99.90;;;;;;5085899;28;19925;-82
2022/01/10 11:40:46;;;;;;;;;;;6.20;99.90;;;;;;5019206;28;19932;-84
2022/01/10 11:43:27;;;;;;;;;;;6.10;99.90;;;;;;4946087;28;19939;-81
2022/01/10 11:46:06;;;;;;;;;;;6.20;99.90;;;;;;4731601;29;19931;-80
2022/01/10 11:55:19;;;;;;;;;;;6.10;99.90;;;;;;5177295;27;19926;-80
2022/01/10 11:57:48;;;;;;;;;;;6.10;99.90;;;;;;5144166;27;19923;-80
2022/01/10 12:00:15;;;;;;;;;;;6.10;99.90;;;;;;5127160;27;19924;-80
2022/01/10 12:02:42;;;;;;;;;;;6.10;99.90;;;;;;5124562;28;19955;-80
2022/01/10 12:05:09;;;;;;;;;;;6.00;99.90;;;;;;5033398;28;19932;-80
2022/01/10 12:07:36;;;;;;;;;;;6.10;99.90;;;;;;4861074;29;19929;-81
2022/01/10 12:10:03;;;;;;;;;;;6.10;99.90;;;;;;4586653;30;19947;-83
2022/01/10 12:17:38;;;;;;;;;;;6.20;99.90;;;;;;5178075;27;19926;-85
2022/01/10 12:20:08;;;;;;;;;;;6.30;99.90;;;;;;5142033;27;19924;-81
2022/01/10 12:22:35;;;;;;;;;;;6.30;99.90;;;;;;5132051;27;19923;-80
2022/01/10 12:25:02;;;;;;;;;;;6.10;99.90;;;;;;5119193;28;19924;-81
2022/01/10 12:27:28;;;;;;;;;;;6.10;99.90;;;;;;5039039;28;19926;-81
2022/01/10 12:29:55;;;;;;;;;;;6.00;99.90;;;;;;4838067;29;19938;-80
2022/01/10 12:32:22;;;;;;;;;;;5.90;99.90;;;;;;4518637;30;20029;-85
2022/01/10 12:39:49;;;;;;;;;;;5.90;99.90;;;;;;5178292;27;19926;-83
2022/01/10 12:42:17;;;;;;;;;;;5.90;99.90;;;;;;5121234;28;19924;-82
2022/01/10 12:44:43;;;;;;;;;;;5.80;99.90;;;;;;5081677;28;19959;-80
2022/01/10 12:47:10;;;;;;;;;;;5.70;99.90;;;;;;5047252;28;19925;-84
2022/01/10 12:49:37;;;;;;;;;;;5.60;99.90;;;;;;4934567;28;19928;-81
2022/01/10 12:52:04;;;;;;;;;;;5.50;99.90;;;;;;4750563;29;19932;-84
2022/01/10 12:54:31;;;;;;;;;;;5.50;99.90;;;;;;4526181;30;19937;-84
2022/01/10 13:01:48;;;;;;;;;;;5.40;99.90;;;;;;5175071;27;19925;-81
2022/01/10 13:04:19;;;;;;;;;;;5.50;99.90;;;;;;5093016;28;19924;-80
2022/01/10 13:06:47;;;;;;;;;;;5.50;99.90;;;;;;5061278;28;19925;-79
2022/01/10 13:09:16;;;;;;;;;;;5.50;99.90;;;;;;5020200;28;19927;-81
2022/01/10 13:11:45;;;;;;;;;;;5.50;99.90;;;;;;4898746;29;19935;-81
2022/01/10 13:14:12;;;;;;;;;;;5.50;99.90;;;;;;4755164;29;19939;-83
2022/01/10 13:16:40;;;;;;;;;;;5.50;99.90;;;;;;4500206;30;19945;-80
2022/01/10 13:24:10;;;;;;;;;;;5.40;99.90;;;;;;5176462;27;19926;-82
2022/01/10 13:26:52;;;;;;;;;;;5.40;99.90;;;;;;5122561;27;19931;-81
2022/01/10 13:29:29;;;;;;;;;;;5.30;99.90;;;;;;5103488;28;19978;-82
2022/01/10 13:31:56;;;;;;;;;;;5.30;99.90;;;;;;5048389;28;19926;-83
2022/01/10 13:34:26;;;;;;;;;;;5.30;99.90;;;;;;4957996;28;19927;-85
2022/01/10 13:36:53;;;;;;;;;;;5.30;99.90;;;;;;4781771;29;19930;-83
2022/01/10 13:42:00;;;;;;;;;;;5.20;99.90;;;;;;5172115;27;19926;-86
2022/01/10 13:44:27;;;;;;;;;;;5.20;99.90;;;;;;5134457;27;19930;-83
2022/01/10 13:47:05;;;;;;;;;;;5.20;99.90;;;;;;5109871;28;19924;-83
2022/01/10 13:49:33;;;;;;;;;;;5.20;99.90;;;;;;5019493;28;19925;-80
2022/01/10 13:52:09;;;;;;;;;;;5.20;99.90;;;;;;4915490;29;19935;-84
2022/01/10 13:54:37;;;;;;;;;;;5.20;99.90;;;;;;4790104;29;19930;-81
2022/01/10 13:57:22;;;;;;;;;;;5.20;99.90;;;;;;4577920;30;19935;-83
2022/01/10 14:04:53;;;;;;;;;;;5.10;99.90;;;;;;5189459;27;19925;-78
2022/01/10 14:07:20;;;;;;;;;;;5.00;99.90;;;;;;5143247;27;19923;-79
2022/01/10 14:09:47;;;;;;;;;;;5.00;99.90;;;;;;5129681;28;19927;-78
2022/01/10 14:12:14;;;;;;;;;;;4.90;99.90;;;;;;5034901;28;19926;-84
2022/01/10 14:14:40;;;;;;;;;;;4.90;99.90;;;;;;4898208;29;19929;-78
2022/01/10 14:17:07;;;;;;;;;;;4.90;99.90;;;;;;4716034;29;19933;-82
2022/01/10 14:19:34;;;;;;;;;;;4.90;99.90;;;;;;4462512;31;19937;-81
2022/01/10 14:24:51;;;;;;;;;;;4.70;99.90;;;;;;5179531;27;19930;-81
2022/01/10 14:27:18;;;;;;;;;;;4.60;99.90;;;;;;5131750;27;19930;-81
2022/01/10 14:29:48;;;;;;;;;;;4.60;99.90;;;;;;5129014;27;19931;-78
2022/01/10 14:32:14;;;;;;;;;;;4.50;99.90;;;;;;5131306;28;19943;-81
2022/01/10 14:34:41;;;;;;;;;;;4.50;99.90;;;;;;5050605;28;19946;-82
2022/01/10 14:37:11;;;;;;;;;;;4.40;99.90;;;;;;4875981;29;19929;-83
2022/01/10 14:39:38;;;;;;;;;;;4.30;99.90;;;;;;4640081;30;19942;-79
2022/01/10 14:42:06;;;;;;;;;;;4.20;99.90;;;;;;4314172;31;19943;-85
2022/01/10 14:49:43;;;;;;;;;;;4.00;99.90;;;;;;5177141;27;19926;-85
2022/01/10 14:52:12;;;;;;;;;;;3.90;99.90;;;;;;5134330;27;19931;-83
2022/01/10 14:54:39;;;;;;;;;;;3.90;99.90;;;;;;5080482;28;19924;-82
2022/01/10 14:57:06;;;;;;;;;;;3.80;99.90;;;;;;5111305;28;19938;-84
2022/01/10 14:59:33;;;;;;;;;;;3.80;99.90;;;;;;5039087;28;19926;-84
2022/01/10 15:02:00;;;;;;;;;;;3.70;99.90;;;;;;4802223;29;19942;-84
2022/01/10 15:04:26;;;;;;;;;;;3.80;99.90;;;;;;4526067;30;19938;-80
2022/01/10 15:11:58;;;;;;;;;;;3.60;99.90;;;;;;5146686;27;19930;-80
2022/01/10 15:14:28;;;;;;;;;;;3.60;99.90;;;;;;5084687;28;19932;-81
2022/01/10 15:16:55;;;;;;;;;;;3.60;99.90;;;;;;5071007;28;19932;-80
2022/01/10 15:19:25;;;;;;;;;;;3.60;99.90;;;;;;5047706;28;19933;-85
2022/01/10 15:21:53;;;;;;;;;;;3.60;99.90;;;;;;4945444;28;19937;-85
2022/01/10 15:24:19;;;;;;;;;;;3.60;99.90;;;;;;4769229;29;19938;-84
2022/01/10 15:26:46;;;;;;;;;;;3.60;99.90;;;;;;4540659;30;19937;-82
2022/01/10 15:32:56;;;;;;;;;;;3.50;99.90;;;;;;5169379;27;19926;-79
2022/01/10 15:35:23;;;;;;;;;;;3.50;99.90;;;;;;5085159;28;19924;-84
2022/01/10 15:37:51;;;;;;;;;;;3.50;99.90;;;;;;5093091;27;19954;-84
2022/01/10 15:40:18;;;;;;;;;;;3.40;99.90;;;;;;5109306;28;19939;-86
2022/01/10 15:42:44;;;;;;;;;;;3.40;99.90;;;;;;5008777;28;19931;-81
2022/01/10 15:45:12;;;;;;;;;;;3.40;99.90;;;;;;4800589;29;19935;-81
2022/01/10 15:47:38;;;;;;;;;;;3.40;99.90;;;;;;4633113;30;19946;-83
2022/01/10 15:55:10;;;;;;;;;;;3.20;99.90;;;;;;5175427;27;19929;-81
2022/01/10 15:57:37;;;;;;;;;;;3.10;99.90;;;;;;5120237;27;19930;-82
2022/01/10 16:00:04;;;;;;;;;;;3.20;99.90;;;;;;5115502;28;19939;-81
2022/01/10 16:02:37;;;;;;;;;;;3.10;99.90;;;;;;5092544;28;19931;-84
2022/01/10 16:05:04;;;;;;;;;;;3.10;99.90;;;;;;4949450;28;19928;-83
2022/01/10 16:07:32;;;;;;;;;;;3.10;99.90;;;;;;4780463;29;19938;-82
2022/01/10 16:09:59;;;;;;;;;;;3.10;99.90;;;;;;4528392;30;19948;-81
2022/01/10 16:17:31;;;;;;;;;;;3.00;99.90;;;;;;5179572;27;19925;-80
2022/01/10 16:19:58;;;;;;;;;;;3.00;99.90;;;;;;5132101;27;19923;-82
2022/01/10 16:22:25;;;;;;;;;;;;;;;;;;5128993;27;19932;-82
2022/01/10 16:24:52;;;;;;;;;;;;;;;;;;5085760;28;19931;-80
2022/01/10 16:27:19;;;;;;;;;;;;;;;;;;5031977;28;19926;-83
2022/01/10 16:29:45;;;;;;;;;;;;;;;;;;4851959;29;19930;-82
2022/01/10 16:32:12;;;;;;;;;;;;;;;;;;4615866;30;19935;-84
2022/01/10 16:39:44;;;;;;;;;;;;;;;;;;5175842;27;19930;-83
2022/01/10 16:42:12;;;;;;;;;;;;;;;;;;5117802;28;19923;-83
2022/01/10 16:44:39;;;;;;;;;;;;;;;;;;5077802;28;19947;-83
2022/01/10 16:47:06;;;;;;;;;;;;;;;;;;5063074;28;19925;-83
2022/01/10 16:49:33;;;;;;;;;;;;;;;;;;5004974;28;19927;-80
2022/01/10 16:52:00;;;;;;;;;;;;;;;;;;4919007;28;19917;-81
2022/01/10 16:54:27;;;;;;;;;;;;;;;;;;4592945;30;19926;-79
2022/01/10 17:01:25;;;;;;;;;;;;;;;;;;5182368;27;19925;-80
2022/01/10 17:03:53;;;;;;;;;;;;;;;;;;5119509;28;19931;-80
2022/01/10 17:06:20;;;;;;;;;;;;;;;;;;5084318;28;19932;-80
2022/01/10 17:08:47;;;;;;;;;;;;;;;;;;5042044;28;19926;-81
2022/01/10 17:11:14;;;;;;;;;;;;;;;;;;4954529;28;19935;-83
2022/01/10 17:13:41;;;;;;;;;;;;;;;;;;4743455;29;19932;-83
2022/01/10 17:16:09;;;;;;;;;;;;;;;;;;4522858;31;19954;-83
2022/01/10 17:21:24;;;;;;;;;;;;;;;;;;5183473;27;19925;-81
2022/01/10 17:23:51;;;;;;;;;;;;;;;;;;5141496;27;19924;-81
2022/01/10 17:26:18;;;;;;;;;;;;;;;;;;5102288;28;19931;-80
2022/01/10 17:28:45;;;;;;;;;;;;;;;;;;5056612;28;19925;-81
2022/01/10 17:31:12;;;;;;;;;;;;;;;;;;4993444;28;19927;-81
2022/01/10 17:33:39;;;;;;;;;;;;;;;;;;4814875;29;19931;-82
2022/01/10 17:36:07;;;;;;;;;;;;;;;;;;4563698;30;19937;-82
2022/01/10 17:43:39;;;;;;;;;;;;;;;;;;5156582;27;19927;-80
2022/01/10 17:46:06;;;;;;;;;;;;;;;;;;5117861;27;19931;-84
2022/01/10 17:48:33;;;;;;;;;;;;;;;;;;5108195;28;19943;-82
2022/01/10 17:51:05;;;;;;;;;;;;;;;;;;5022029;28;19926;-83
2022/01/10 17:53:32;;;;;;;;;;;;;;;;;;4899221;29;19939;-81
2022/01/10 17:55:59;;;;;;;;;;;;;;;;;;4783163;29;19937;-83
2022/01/10 17:58:26;;;;;;;;;;;;;;;;;;4619709;30;19935;-84
2022/01/10 18:05:58;;;;;;;;;;;;;;;;;;5176213;27;19927;-82
2022/01/10 18:08:25;;;;;;;;;;;;;;;;;;5132812;27;19923;-81
2022/01/10 18:10:52;;;;;;;;;;;;;;;;;;5111908;28;19938;-81
2022/01/10 18:13:20;;;;;;;;;;;;;;;;;;5082694;28;19932;-82
2022/01/10 18:15:47;;;;;;;;;;;;;;;;;;4998346;28;19927;-82
2022/01/10 18:18:14;;;;;;;;;;;;;;;;;;4882180;28;20009;-80
2022/01/10 18:20:41;;;;;;;;;;;;;;;;;;4582168;30;19944;-82
2022/01/10 18:28:16;;;;;;;;;;;;;;;;;;5175431;27;19926;-79
2022/01/10 18:30:43;;;;;;;;;;;;;;;;;;5134726;27;19923;-83
2022/01/10 18:33:10;;;;;;;;;;;;;;;;;;5128462;27;19924;-79
2022/01/10 18:35:37;;;;;;;;;;;;;;;;;;5026269;28;19937;-80
2022/01/10 18:38:04;;;;;;;;;;;;;;;;;;4952295;28;19932;-80
2022/01/10 18:40:31;;;;;;;;;;;;;;;;;;4872299;29;19935;-80
2022/01/10 18:42:59;;;;;;;;;;;;;;;;;;4683635;29;19945;-82
2022/01/10 18:48:11;;;;;;;;;;;;;;;;;;5184073;27;19929;-87
2022/01/10 18:50:38;;;;;;;;;;;;;;;;;;5135304;27;19931;-85
2022/01/10 18:53:05;;;;;;;;;;;;;;;;;;5079129;28;19932;-82
2022/01/10 18:55:32;;;;;;;;;;;;;;;;;;5050335;28;19933;-85
2022/01/10 18:57:59;;;;;;;;;;;;;;;;;;4928884;28;19936;-83
2022/01/10 19:00:25;;;;;;;;;;;;;;;;;;4648162;30;19942;-79
2022/01/10 19:02:52;;;;;;;;;;;;;;;;;;4392556;31;19946;-82
2022/01/10 19:10:24;;;;;;;;;;;;;;;;;;5173965;27;19926;-82